Terminal Aerodrome Forecast
Issued by NWS

Home | Current Version | Previous Version | Text Only | Print | Product List | Glossary On
Versions: 1 2 3 4 5 6 7 8 9 10 11 12 13 14 15 16 17 18 19 20 21 22 23 24 25 26 27 28 29
214
FTUS42 KRAH 122328
TAFINT
TAF
KINT 122328Z 1300/1324 22005KT P6SM BKN070 BKN100
     FM130500 31012KT P6SM SCT100
      TEMPO 1310/1314 31015G25KT
     FM131600 32015KT P6SM SKC
     FM132300 32006KT P6SM SKC=

USA.gov is the U.S. government's official web portal to all federal, state and local government web resources and services.